Time;durP1;ratioP1;P1;durP2;ratioP2;P2;SDS_P1;SDS_P2;PMS_P1;PMS_P2;Temp;Humidity;BMP_temperature;BMP_pressure;BME280_temperature;BME280_humidity;BME280_pressure;Samples;Min_cycle;Max_cycle;Signal;HPM_P1;HPM_P2
2023/04/25 00:00:07;;;;;;;3.00;2.90;;;;;;;;;;6361908;27;20288;-75
2023/04/25 00:03:15;;;;;;;3.07;2.97;;;;;;;;;;6360703;27;20312;-75
2023/04/25 00:06:21;;;;;;;3.03;2.83;;;;;;;;;;6360523;27;20272;-76
2023/04/25 00:09:28;;;;;;;2.80;2.70;;;;;;;;;;6361785;27;20307;-75
2023/04/25 00:12:34;;;;;;;2.77;2.77;;;;;;;;;;6361577;27;20299;-76
2023/04/25 00:15:41;;;;;;;2.87;2.77;;;;;;;;;;6361947;27;20291;-76
2023/04/25 00:18:51;;;;;;;3.17;3.07;;;;;;;;;;6361338;27;20584;-75
2023/04/25 00:21:56;;;;;;;3.13;3.00;;;;;;;;;;6361537;27;20296;-75
2023/04/25 00:25:03;;;;;;;3.83;3.57;;;;;;;;;;6361118;27;20302;-76
2023/04/25 00:28:10;;;;;;;2.90;2.80;;;;;;;;;;6360982;27;20307;-76
2023/04/25 00:31:15;;;;;;;2.80;2.70;;;;;;;;;;6359897;28;20296;-75
2023/04/25 00:34:20;;;;;;;3.30;3.10;;;;;;;;;;6361109;27;20302;-75
2023/04/25 00:37:26;;;;;;;3.00;2.80;;;;;;;;;;6361127;27;20292;-76
2023/04/25 00:40:32;;;;;;;3.00;2.90;;;;;;;;;;6350138;28;20292;-75
2023/04/25 00:43:38;;;;;;;3.00;2.80;;;;;;;;;;6359064;28;20454;-75
2023/04/25 00:46:44;;;;;;;2.53;2.43;;;;;;;;;;6361110;27;20470;-76
2023/04/25 00:49:49;;;;;;;2.60;2.40;;;;;;;;;;6359879;27;20291;-74
2023/04/25 00:52:54;;;;;;;2.80;2.60;;;;;;;;;;6359068;27;20292;-75
2023/04/25 00:56:01;;;;;;;2.10;2.10;;;;;;;;;;6361084;27;20287;-75
2023/04/25 00:59:07;;;;;;;2.73;2.63;;;;;;;;;;6360253;27;20287;-74
2023/04/25 01:02:12;;;;;;;2.60;2.43;;;;;;;;;;6360924;27;20287;-74
2023/04/25 01:05:18;;;;;;;2.00;2.00;;;;;;;;;;6348833;22;20582;-81
2023/04/25 01:08:25;;;;;;;2.43;2.40;;;;;;;;;;6334246;28;20311;-79
2023/04/25 01:11:32;;;;;;;2.13;2.07;;;;;;;;;;6316716;28;20289;-80
2023/04/25 01:14:37;;;;;;;2.27;2.17;;;;;;;;;;6334310;28;20295;-80
2023/04/25 01:17:43;;;;;;;2.43;2.00;;;;;;;;;;6334015;28;20296;-80
2023/04/25 01:20:49;;;;;;;2.63;2.43;;;;;;;;;;6334201;28;20304;-80
2023/04/25 01:23:57;;;;;;;2.50;2.30;;;;;;;;;;6332482;28;20303;-80
2023/04/25 01:27:02;;;;;;;3.40;2.00;;;;;;;;;;6334370;28;20291;-80
2023/04/25 01:30:09;;;;;;;2.20;2.07;;;;;;;;;;6315014;28;20329;-76
2023/04/25 01:33:16;;;;;;;2.40;2.30;;;;;;;;;;6332332;28;20307;-80
2023/04/25 01:36:22;;;;;;;2.23;2.20;;;;;;;;;;6315750;28;20268;-81
2023/04/25 01:39:28;;;;;;;2.23;2.03;;;;;;;;;;6333285;28;20291;-80
2023/04/25 01:42:34;;;;;;;1.83;1.83;;;;;;;;;;6315577;28;20354;-79
2023/04/25 01:45:41;;;;;;;1.70;1.70;;;;;;;;;;6315988;28;20558;-81
2023/04/25 01:48:47;;;;;;;1.80;1.53;;;;;;;;;;6332290;28;20303;-81
2023/04/25 01:51:52;;;;;;;2.10;2.10;;;;;;;;;;6332870;28;20292;-81
2023/04/25 01:55:01;;;;;;;2.00;2.00;;;;;;;;;;6332420;28;20298;-81
2023/04/25 01:58:12;;;;;;;1.93;1.93;;;;;;;;;;6344781;28;20393;-80
2023/04/25 02:01:37;;;;;;;1.83;1.83;;;;;;;;;;6334787;28;20292;-81
2023/04/25 02:04:57;;;;;;;1.63;1.63;;;;;;;;;;6330010;28;20309;-80
2023/04/25 02:08:05;;;;;;;1.47;1.47;;;;;;;;;;6320098;28;20292;-80
2023/04/25 02:11:13;;;;;;;1.37;1.37;;;;;;;;;;6321022;28;20591;-80
2023/04/25 02:14:24;;;;;;;1.27;1.27;;;;;;;;;;6320534;28;20301;-81
2023/04/25 02:17:40;;;;;;;1.37;1.37;;;;;;;;;;6320028;28;20545;-80
2023/04/25 02:20:46;;;;;;;1.40;1.40;;;;;;;;;;6339360;28;20385;-81
2023/04/25 02:23:51;;;;;;;1.20;1.20;;;;;;;;;;6337878;28;20293;-80
2023/04/25 02:26:59;;;;;;;1.40;1.40;;;;;;;;;;6338828;28;20292;-80
2023/04/25 02:30:06;;;;;;;1.40;1.30;;;;;;;;;;6336503;28;20299;-81
2023/04/25 02:33:11;;;;;;;1.50;1.50;;;;;;;;;;6335754;28;20303;-81
2023/04/25 02:36:16;;;;;;;1.57;1.50;;;;;;;;;;6338075;28;20276;-81
2023/04/25 02:39:22;;;;;;;1.13;1.13;;;;;;;;;;6337656;28;20292;-81
2023/04/25 02:42:28;;;;;;;1.20;1.20;;;;;;;;;;6338506;28;20272;-81
2023/04/25 02:45:34;;;;;;;1.30;1.30;;;;;;;;;;6336584;28;20353;-81
2023/04/25 02:48:40;;;;;;;1.40;1.30;;;;;;;;;;6337258;28;20284;-81
2023/04/25 02:51:45;;;;;;;1.20;1.20;;;;;;;;;;6336295;28;20310;-80
2023/04/25 02:54:50;;;;;;;1.07;1.07;;;;;;;;;;6337339;28;20379;-81
2023/04/25 02:57:57;;;;;;;1.20;1.20;;;;;;;;;;6336768;28;20286;-81
2023/04/25 03:01:14;;;;;;;1.20;1.20;;;;;;;;;;6319388;28;20341;-80
2023/04/25 03:04:20;;;;;;;1.20;1.20;;;;;;;;;;6331302;28;20298;-80
2023/04/25 03:07:26;;;;;;;1.40;1.40;;;;;;;;;;6341610;28;20286;-77
2023/04/25 03:10:31;;;;;;;1.10;1.10;;;;;;;;;;6342651;28;20298;-80
2023/04/25 03:13:41;;;;;;;1.30;1.30;;;;;;;;;;6334728;28;20438;-81
2023/04/25 03:16:48;;;;;;;1.10;1.10;;;;;;;;;;6353546;28;20295;-80
2023/04/25 03:19:55;;;;;;;1.20;1.20;;;;;;;;;;6338100;28;20304;-80
2023/04/25 03:23:00;;;;;;;1.30;1.30;;;;;;;;;;6336561;28;20296;-79
2023/04/25 03:26:06;;;;;;;1.10;1.10;;;;;;;;;;6335912;28;20291;-80
2023/04/25 03:29:13;;;;;;;1.23;1.23;;;;;;;;;;6335202;28;20340;-80
2023/04/25 03:32:20;;;;;;;1.10;1.10;;;;;;;;;;6335702;28;20291;-81
2023/04/25 03:35:26;;;;;;;1.10;1.10;;;;;;;;;;6334845;28;20303;-80
2023/04/25 03:38:32;;;;;;;1.10;1.10;;;;;;;;;;6309784;28;20449;-80
2023/04/25 03:41:37;;;;;;;1.30;1.30;;;;;;;;;;6310713;28;20362;-81
2023/04/25 03:44:50;;;;;;;1.20;1.20;;;;;;;;;;6310304;28;20300;-81
2023/04/25 03:47:55;;;;;;;1.20;1.20;;;;;;;;;;6313402;28;20291;-79
2023/04/25 03:51:00;;;;;;;1.20;1.20;;;;;;;;;;6315689;28;20292;-80
2023/04/25 03:54:07;;;;;;;1.37;1.37;;;;;;;;;;6313334;28;20459;-81
2023/04/25 03:57:30;;;;;;;1.30;1.30;;;;;;;;;;6311808;28;20287;-80
2023/04/25 04:00:38;;;;;;;1.17;1.17;;;;;;;;;;6309834;28;20448;-80
2023/04/25 04:03:43;;;;;;;1.40;1.40;;;;;;;;;;6318072;28;20291;-80
2023/04/25 04:06:49;;;;;;;1.50;1.50;;;;;;;;;;6318297;28;20303;-81
2023/04/25 04:10:01;;;;;;;1.30;1.30;;;;;;;;;;6337815;28;20285;-81
2023/04/25 04:13:14;;;;;;;2.00;2.00;;;;;;;;;;6342869;28;20437;-80
2023/04/25 04:16:20;;;;;;;2.87;1.50;;;;;;;;;;6343386;28;20307;-81
2023/04/25 04:19:27;;;;;;;1.60;1.60;;;;;;;;;;6371580;28;20447;-80
2023/04/25 04:23:02;;;;;;;2.03;1.70;;;;;;;;;;6350619;28;20334;-81
2023/04/25 04:26:08;;;;;;;1.70;1.70;;;;;;;;;;6342534;28;20470;-81
2023/04/25 04:29:49;;;;;;;1.70;1.70;;;;;;;;;;6337104;28;20312;-81
2023/04/25 04:33:03;;;;;;;1.90;1.90;;;;;;;;;;6358935;28;20295;-82
2023/04/25 04:36:09;;;;;;;1.93;1.93;;;;;;;;;;6341649;28;20280;-80
2023/04/25 04:39:15;;;;;;;1.90;1.90;;;;;;;;;;6325209;28;20296;-80
2023/04/25 04:42:32;;;;;;;2.10;2.10;;;;;;;;;;6342899;28;20292;-80
2023/04/25 04:46:04;;;;;;;2.23;1.90;;;;;;;;;;6355400;28;20287;-81
2023/04/25 04:49:12;;;;;;;2.00;2.00;;;;;;;;;;6359876;28;20302;-81
2023/04/25 04:52:42;;;;;;;2.27;2.17;;;;;;;;;;6359222;28;20292;-81
2023/04/25 04:56:14;;;;;;;2.30;2.30;;;;;;;;;;6328254;28;20291;-80
2023/04/25 04:59:32;;;;;;;3.90;2.50;;;;;;;;;;6341596;28;20311;-81
2023/04/25 05:02:40;;;;;;;2.30;2.20;;;;;;;;;;6362942;28;20293;-81
2023/04/25 05:06:08;;;;;;;2.43;2.20;;;;;;;;;;6315777;28;20292;-80
2023/04/25 05:09:49;;;;;;;3.37;2.40;;;;;;;;;;6255906;28;20297;-78
2023/04/25 05:13:20;;;;;;;2.67;2.47;;;;;;;;;;6329061;28;20291;-80
2023/04/25 05:16:44;;;;;;;2.93;2.73;;;;;;;;;;6334752;28;20317;-80
2023/04/25 05:20:28;;;;;;;2.90;2.80;;;;;;;;;;6309644;28;20359;-81
2023/04/25 05:23:55;;;;;;;3.13;3.03;;;;;;;;;;6333894;28;20325;-80
2023/04/25 05:27:19;;;;;;;3.37;3.10;;;;;;;;;;6334055;28;20283;-80
2023/04/25 05:30:43;;;;;;;3.00;2.83;;;;;;;;;;6321006;28;20311;-80
2023/04/25 05:33:53;;;;;;;2.90;2.70;;;;;;;;;;6318404;28;20285;-80
2023/04/25 05:37:00;;;;;;;3.00;2.80;;;;;;;;;;6317332;28;20475;-80
2023/04/25 05:40:09;;;;;;;2.90;2.60;;;;;;;;;;6315798;28;20359;-80
2023/04/25 05:43:23;;;;;;;5.13;2.80;;;;;;;;;;6333317;28;20305;-80
2023/04/25 05:46:38;;;;;;;3.20;3.10;;;;;;;;;;6316318;28;20299;-80
2023/04/25 05:50:11;;;;;;;3.50;2.87;;;;;;;;;;6333433;28;20300;-80
2023/04/25 05:53:37;;;;;;;2.40;2.20;;;;;;;;;;6332120;28;20293;-78
2023/04/25 05:56:44;;;;;;;2.30;2.30;;;;;;;;;;6315824;28;20300;-79
2023/04/25 05:59:50;;;;;;;2.20;2.17;;;;;;;;;;6315622;28;20303;-80
2023/04/25 06:02:55;;;;;;;2.17;2.07;;;;;;;;;;6315891;28;20292;-78
2023/04/25 06:06:01;;;;;;;2.17;2.10;;;;;;;;;;6358950;28;20295;-80
2023/04/25 06:09:07;;;;;;;2.40;2.30;;;;;;;;;;6323344;28;20300;-74
2023/04/25 06:12:13;;;;;;;2.40;2.30;;;;;;;;;;6339617;28;20273;-78
2023/04/25 06:15:19;;;;;;;2.27;2.27;;;;;;;;;;6340393;28;20311;-81
2023/04/25 06:18:27;;;;;;;2.10;2.10;;;;;;;;;;6358485;28;20327;-80
2023/04/25 06:21:32;;;;;;;2.10;2.00;;;;;;;;;;6359077;28;20304;-81
2023/04/25 06:24:37;;;;;;;2.10;2.00;;;;;;;;;;6340062;28;20293;-81
2023/04/25 06:27:44;;;;;;;2.40;2.40;;;;;;;;;;6340333;28;20475;-81
2023/04/25 06:30:50;;;;;;;2.17;2.07;;;;;;;;;;6340439;28;20296;-80
2023/04/25 06:33:56;;;;;;;2.00;2.00;;;;;;;;;;6340080;28;20296;-79
2023/04/25 06:37:04;;;;;;;2.00;2.00;;;;;;;;;;6340689;28;20467;-81
2023/04/25 06:40:11;;;;;;;1.83;1.83;;;;;;;;;;6362550;28;20351;-79
2023/04/25 06:43:17;;;;;;;8.37;2.53;;;;;;;;;;6362644;28;20296;-81
2023/04/25 06:46:41;;;;;;;5.00;2.40;;;;;;;;;;6342241;28;20301;-80
2023/04/25 06:49:46;;;;;;;2.20;2.10;;;;;;;;;;6345664;28;20290;-80
2023/04/25 06:52:52;;;;;;;3.70;2.27;;;;;;;;;;6345503;28;20303;-81
2023/04/25 06:55:59;;;;;;;2.30;2.20;;;;;;;;;;6345449;28;20299;-81
2023/04/25 06:59:14;;;;;;;2.43;2.40;;;;;;;;;;6345543;28;20398;-81
2023/04/25 07:02:22;;;;;;;2.37;2.27;;;;;;;;;;6328661;28;20304;-82
2023/04/25 07:05:30;;;;;;;2.40;2.30;;;;;;;;;;6345229;28;20300;-81
2023/04/25 07:08:35;;;;;;;2.40;2.40;;;;;;;;;;6363618;28;20465;-79
2023/04/25 07:11:40;;;;;;;1.97;1.97;;;;;;;;;;6363845;28;20322;-81
2023/04/25 07:14:47;;;;;;;2.70;2.50;;;;;;;;;;6363022;28;20300;-80
2023/04/25 07:17:52;;;;;;;2.30;2.30;;;;;;;;;;6344549;28;20292;-80
2023/04/25 07:20:58;;;;;;;3.73;2.40;;;;;;;;;;6345187;28;20309;-81
2023/04/25 07:24:03;;;;;;;2.60;2.50;;;;;;;;;;6344811;28;20293;-82
2023/04/25 07:27:12;;;;;;;2.70;2.60;;;;;;;;;;6343550;28;20300;-81
2023/04/25 07:30:31;;;;;;;3.07;2.63;;;;;;;;;;6343662;28;20293;-81
2023/04/25 07:33:36;;;;;;;2.80;2.70;;;;;;;;;;6343682;28;20383;-81
2023/04/25 07:36:41;;;;;;;3.20;2.93;;;;;;;;;;6338330;28;20292;-81
2023/04/25 07:39:47;;;;;;;3.10;2.90;;;;;;;;;;6335608;28;20300;-81
2023/04/25 07:42:52;;;;;;;3.00;2.80;;;;;;;;;;6317993;28;20293;-80
2023/04/25 07:46:06;;;;;;;3.50;2.60;;;;;;;;;;6318260;28;20290;-81
2023/04/25 07:49:13;;;;;;;3.47;3.17;;;;;;;;;;6317961;28;20326;-81
2023/04/25 07:52:21;;;;;;;4.22;3.30;;;;;;;;;;6329904;28;20289;-81
2023/04/25 07:55:31;;;;;;;16.27;3.60;;;;;;;;;;6317725;28;20297;-81
2023/04/25 07:58:45;;;;;;;3.63;3.10;;;;;;;;;;6317433;28;20290;-81
2023/04/25 08:01:54;;;;;;;3.70;3.50;;;;;;;;;;6334346;28;20289;-80
2023/04/25 08:04:59;;;;;;;3.83;3.47;;;;;;;;;;6308426;28;20298;-81
2023/04/25 08:08:06;;;;;;;3.93;3.57;;;;;;;;;;6292911;28;20450;-81
2023/04/25 08:11:11;;;;;;;3.75;3.60;;;;;;;;;;6322125;28;20294;-80
2023/04/25 08:14:17;;;;;;;3.10;3.00;;;;;;;;;;6333521;28;20301;-79
2023/04/25 08:17:24;;;;;;;3.63;3.43;;;;;;;;;;6334091;28;20293;-81
2023/04/25 08:20:30;;;;;;;3.33;3.23;;;;;;;;;;6333526;28;20574;-81
2023/04/25 08:23:38;;;;;;;3.85;3.55;;;;;;;;;;6333849;28;20594;-81
2023/04/25 08:26:53;;;;;;;4.10;3.90;;;;;;;;;;6335504;28;20310;-81
2023/04/25 08:30:02;;;;;;;4.20;3.78;;;;;;;;;;6333196;28;20301;-80
2023/04/25 08:33:10;;;;;;;4.28;3.85;;;;;;;;;;6333104;28;20289;-80
2023/04/25 08:36:39;;;;;;;4.53;4.10;;;;;;;;;;6333852;28;20285;-81
2023/04/25 08:40:06;;;;;;;4.60;4.30;;;;;;;;;;6335257;28;20298;-79
2023/04/25 08:43:22;;;;;;;4.40;4.00;;;;;;;;;;6333153;28;20594;-80
2023/04/25 08:46:27;;;;;;;5.43;3.80;;;;;;;;;;6335139;28;20294;-81
2023/04/25 08:50:06;;;;;;;6.28;4.93;;;;;;;;;;6323727;28;20298;-80
2023/04/25 08:53:17;;;;;;;6.28;5.47;;;;;;;;;;6332841;28;20440;-81
2023/04/25 08:56:24;;;;;;;9.68;6.32;;;;;;;;;;6333443;28;20289;-82
2023/04/25 08:59:30;;;;;;;8.33;6.50;;;;;;;;;;6334865;28;20294;-79
2023/04/25 09:02:36;;;;;;;9.33;7.33;;;;;;;;;;6342593;28;20332;-79
2023/04/25 09:05:43;;;;;;;12.10;8.43;;;;;;;;;;6360925;28;20320;-81
2023/04/25 09:08:53;;;;;;;10.77;7.87;;;;;;;;;;6341143;28;20297;-80
2023/04/25 09:11:59;;;;;;;15.63;8.55;;;;;;;;;;6341098;28;20288;-80
2023/04/25 09:15:11;;;;;;;13.43;7.78;;;;;;;;;;6340642;28;20436;-81
2023/04/25 09:18:35;;;;;;;7.85;6.20;;;;;;;;;;6357967;28;20484;-80
2023/04/25 09:21:42;;;;;;;6.70;5.95;;;;;;;;;;6341307;28;20526;-81
2023/04/25 09:24:48;;;;;;;7.30;5.07;;;;;;;;;;6340703;28;20289;-80
2023/04/25 09:27:55;;;;;;;5.70;5.30;;;;;;;;;;6340861;28;20539;-80
2023/04/25 09:31:05;;;;;;;7.72;5.68;;;;;;;;;;6341193;28;20327;-80
2023/04/25 09:34:17;;;;;;;7.25;5.95;;;;;;;;;;6340211;28;20296;-81
2023/04/25 09:37:32;;;;;;;5.72;5.32;;;;;;;;;;6359002;28;20285;-80
2023/04/25 09:40:44;;;;;;;5.20;4.80;;;;;;;;;;6358506;28;20293;-81
2023/04/25 09:44:00;;;;;;;6.95;6.28;;;;;;;;;;6340248;28;20300;-83
2023/04/25 09:47:14;;;;;;;7.15;5.88;;;;;;;;;;6341319;28;20309;-81
2023/04/25 09:50:24;;;;;;;6.90;6.20;;;;;;;;;;6340951;28;20288;-83
2023/04/25 09:53:40;;;;;;;7.05;6.32;;;;;;;;;;6340503;28;20593;-81
2023/04/25 09:56:55;;;;;;;8.60;6.05;;;;;;;;;;6341969;28;20300;-81
2023/04/25 10:00:04;;;;;;;6.82;6.18;;;;;;;;;;6358429;28;20296;-81
2023/04/25 10:03:19;;;;;;;8.23;6.82;;;;;;;;;;6352578;28;20286;-81
2023/04/25 10:06:50;;;;;;;12.60;6.40;;;;;;;;;;6323132;28;20460;-80
2023/04/25 10:10:01;;;;;;;11.60;6.38;;;;;;;;;;6332472;28;20305;-81
2023/04/25 10:13:08;;;;;;;8.43;6.05;;;;;;;;;;6339743;28;20306;-79
2023/04/25 10:16:13;;;;;;;6.07;5.47;;;;;;;;;;6338312;28;20306;-81
2023/04/25 10:19:18;;;;;;;6.43;5.82;;;;;;;;;;6332989;28;20305;-82
2023/04/25 10:22:31;;;;;;;6.80;5.75;;;;;;;;;;6335140;28;20294;-81
2023/04/25 10:25:44;;;;;;;7.80;5.88;;;;;;;;;;6340675;28;20447;-82
2023/04/25 10:29:44;;;;;;;5.95;5.32;;;;;;;;;;6242985;28;20306;-80
2023/04/25 10:32:50;;;;;;;6.28;5.53;;;;;;;;;;6338566;28;20306;-82
2023/04/25 10:35:59;;;;;;;6.68;6.07;;;;;;;;;;6337512;28;20285;-82
2023/04/25 10:39:08;;;;;;;6.72;5.60;;;;;;;;;;6337325;28;20293;-80
2023/04/25 10:42:15;;;;;;;5.30;4.90;;;;;;;;;;6335530;28;20523;-80
2023/04/25 10:45:20;;;;;;;5.93;5.28;;;;;;;;;;6336900;28;20309;-82
2023/04/25 10:48:28;;;;;;;5.45;4.95;;;;;;;;;;6337178;28;20290;-81
2023/04/25 10:51:35;;;;;;;5.45;4.95;;;;;;;;;;6337190;28;20305;-80
2023/04/25 10:55:01;;;;;;;7.35;5.10;;;;;;;;;;6337498;28;20297;-80
2023/04/25 10:58:08;;;;;;;7.75;5.00;;;;;;;;;;6337454;28;20285;-81
2023/04/25 11:01:14;;;;;;;7.45;4.68;;;;;;;;;;6337704;28;20316;-80
2023/04/25 11:04:23;;;;;;;4.57;4.28;;;;;;;;;;6349335;28;20305;-81
2023/04/25 11:07:36;;;;;;;7.05;4.90;;;;;;;;;;6362849;28;20293;-81
2023/04/25 11:10:42;;;;;;;5.50;4.65;;;;;;;;;;6361907;28;20296;-80
2023/04/25 11:13:51;;;;;;;7.90;4.70;;;;;;;;;;6361893;28;20462;-82
2023/04/25 11:16:56;;;;;;;5.22;4.82;;;;;;;;;;6362643;28;20602;-79
2023/04/25 11:20:09;;;;;;;13.52;5.65;;;;;;;;;;6362125;28;20293;-81
2023/04/25 11:23:14;;;;;;;5.13;4.82;;;;;;;;;;6364517;28;20309;-79
2023/04/25 11:26:21;;;;;;;5.50;5.20;;;;;;;;;;6371542;28;20304;-84
2023/04/25 11:29:28;;;;;;;5.68;5.22;;;;;;;;;;6361847;28;20293;-81
2023/04/25 11:32:35;;;;;;;5.35;5.00;;;;;;;;;;6361658;28;20597;-81
2023/04/25 11:35:42;;;;;;;9.80;5.30;;;;;;;;;;6361280;28;20301;-82
2023/04/25 11:38:47;;;;;;;13.10;5.35;;;;;;;;;;6361819;28;20293;-81
2023/04/25 11:41:53;;;;;;;6.32;4.97;;;;;;;;;;6362312;28;20296;-80
2023/04/25 11:45:00;;;;;;;5.47;5.00;;;;;;;;;;6361515;28;20605;-80
2023/04/25 11:48:05;;;;;;;5.35;4.85;;;;;;;;;;6361783;28;20293;-81
2023/04/25 11:51:11;;;;;;;4.72;4.30;;;;;;;;;;6360772;28;20285;-80
2023/04/25 11:54:17;;;;;;;5.43;4.70;;;;;;;;;;6361548;28;20296;-81
2023/04/25 11:57:22;;;;;;;8.52;4.53;;;;;;;;;;6361726;28;20334;-81
2023/04/25 12:00:29;;;;;;;4.80;4.38;;;;;;;;;;6360936;28;20298;-81
2023/04/25 12:03:35;;;;;;;4.50;4.15;;;;;;;;;;6360240;28;20352;-81
2023/04/25 12:06:41;;;;;;;4.40;4.10;;;;;;;;;;6343506;28;20284;-80
2023/04/25 12:09:53;;;;;;;6.10;4.18;;;;;;;;;;6360760;28;20305;-81
2023/04/25 12:12:59;;;;;;;5.05;4.75;;;;;;;;;;6360965;28;20293;-80
2023/04/25 12:16:06;;;;;;;6.30;4.63;;;;;;;;;;6361224;28;20305;-81
2023/04/25 12:19:15;;;;;;;4.93;4.53;;;;;;;;;;6360553;28;20289;-81
2023/04/25 12:22:22;;;;;;;8.32;4.40;;;;;;;;;;6360584;28;20288;-82
2023/04/25 12:25:38;;;;;;;5.13;4.82;;;;;;;;;;6360098;28;20296;-82
2023/04/25 12:28:48;;;;;;;4.55;4.15;;;;;;;;;;6342401;28;20289;-82
2023/04/25 12:31:55;;;;;;;4.70;4.40;;;;;;;;;;6360755;28;20292;-83
2023/04/25 12:35:01;;;;;;;7.35;5.00;;;;;;;;;;6367202;28;20284;-81
2023/04/25 12:38:06;;;;;;;4.22;4.03;;;;;;;;;;6364258;28;20292;-81
2023/04/25 12:41:14;;;;;;;6.13;3.85;;;;;;;;;;6360406;28;20297;-82
2023/04/25 12:44:19;;;;;;;4.63;4.20;;;;;;;;;;6359400;28;20297;-81
2023/04/25 12:47:26;;;;;;;4.47;4.28;;;;;;;;;;6360322;28;20300;-81
2023/04/25 12:50:31;;;;;;;7.38;4.38;;;;;;;;;;6359449;28;20292;-78
2023/04/25 12:53:37;;;;;;;4.50;4.30;;;;;;;;;;6359284;28;20367;-80
2023/04/25 12:56:43;;;;;;;4.63;4.28;;;;;;;;;;6342362;28;20284;-82
2023/04/25 12:59:48;;;;;;;4.90;4.50;;;;;;;;;;6359935;28;20289;-82
2023/04/25 13:02:55;;;;;;;5.10;4.45;;;;;;;;;;6359199;28;20300;-82
2023/04/25 13:06:00;;;;;;;4.72;4.32;;;;;;;;;;6360490;28;20379;-82
2023/04/25 13:09:06;;;;;;;4.95;4.15;;;;;;;;;;6361792;28;20376;-83
2023/04/25 13:12:13;;;;;;;7.13;5.53;;;;;;;;;;6366286;28;20277;-83
2023/04/25 13:15:18;;;;;;;7.75;5.47;;;;;;;;;;6366266;28;20294;-81
2023/04/25 13:18:26;;;;;;;5.63;3.88;;;;;;;;;;6367109;28;20293;-81
2023/04/25 13:21:32;;;;;;;8.30;4.50;;;;;;;;;;6345064;28;20292;-82
2023/04/25 13:24:38;;;;;;;6.82;4.50;;;;;;;;;;6359054;28;20534;-80
2023/04/25 13:27:44;;;;;;;5.28;4.28;;;;;;;;;;6359445;28;20281;-81
2023/04/25 13:30:49;;;;;;;8.25;4.55;;;;;;;;;;6359073;28;20300;-81
2023/04/25 13:33:55;;;;;;;6.45;4.30;;;;;;;;;;6358490;28;20569;-79
2023/04/25 13:37:01;;;;;;;8.75;5.45;;;;;;;;;;6359239;28;20572;-80
2023/04/25 13:40:09;;;;;;;8.80;4.72;;;;;;;;;;6358883;28;20284;-81
2023/04/25 13:43:14;;;;;;;4.85;4.45;;;;;;;;;;6359054;28;20378;-82
2023/04/25 13:46:19;;;;;;;5.65;4.90;;;;;;;;;;6368331;28;20297;-80
2023/04/25 13:49:45;;;;;;;5.80;4.57;;;;;;;;;;6358938;28;20305;-77
2023/04/25 13:52:51;;;;;;;5.07;4.40;;;;;;;;;;6359807;28;20523;-80
2023/04/25 13:55:56;;;;;;;6.13;4.45;;;;;;;;;;6359609;28;20564;-82
2023/04/25 13:59:01;;;;;;;4.85;4.55;;;;;;;;;;6346177;28;20292;-81
2023/04/25 14:02:06;;;;;;;7.82;4.40;;;;;;;;;;6364628;28;20289;-78
2023/04/25 14:05:14;;;;;;;4.78;4.57;;;;;;;;;;6363157;28;20297;-78
2023/04/25 14:08:19;;;;;;;6.10;5.00;;;;;;;;;;6363479;28;20285;-82
2023/04/25 14:11:25;;;;;;;5.47;5.07;;;;;;;;;;6351950;28;20285;-82
2023/04/25 14:14:30;;;;;;;5.20;4.47;;;;;;;;;;6345734;28;20293;-81
2023/04/25 14:17:35;;;;;;;5.35;4.60;;;;;;;;;;6363685;28;20288;-81
2023/04/25 14:20:42;;;;;;;5.32;4.82;;;;;;;;;;6363665;28;20285;-76
2023/04/25 14:23:47;;;;;;;4.85;4.55;;;;;;;;;;6362488;28;20296;-79
2023/04/25 14:26:53;;;;;;;5.63;5.18;;;;;;;;;;6363794;28;20289;-81
2023/04/25 14:29:58;;;;;;;7.72;4.72;;;;;;;;;;6363513;28;20293;-81
2023/04/25 14:33:03;;;;;;;13.10;5.45;;;;;;;;;;6363688;28;20288;-81
2023/04/25 14:36:11;;;;;;;6.07;5.57;;;;;;;;;;6362732;28;20265;-81
2023/04/25 14:39:17;;;;;;;5.18;4.75;;;;;;;;;;6362731;28;20577;-82
2023/04/25 14:42:22;;;;;;;6.13;4.63;;;;;;;;;;6363183;28;20265;-82
2023/04/25 14:45:27;;;;;;;5.45;4.95;;;;;;;;;;6344398;28;20288;-83
2023/04/25 14:48:33;;;;;;;4.07;3.88;;;;;;;;;;6344346;28;20469;-81
2023/04/25 14:51:39;;;;;;;4.70;3.85;;;;;;;;;;6362596;28;20293;-82
2023/04/25 14:54:45;;;;;;;6.47;3.80;;;;;;;;;;6362431;28;20290;-81
2023/04/25 14:57:50;;;;;;;5.28;3.83;;;;;;;;;;6374492;28;20301;-81
2023/04/25 15:00:56;;;;;;;4.40;4.05;;;;;;;;;;6361681;28;20288;-80
2023/04/25 15:04:01;;;;;;;3.60;3.40;;;;;;;;;;6335812;28;20309;-83
2023/04/25 15:07:10;;;;;;;6.03;3.65;;;;;;;;;;6336774;28;20290;-83
2023/04/25 15:10:16;;;;;;;3.58;3.28;;;;;;;;;;6336869;28;20385;-82
2023/04/25 15:13:21;;;;;;;5.75;3.20;;;;;;;;;;6337742;28;20305;-83
2023/04/25 15:16:26;;;;;;;3.95;2.97;;;;;;;;;;6337885;28;20293;-82
2023/04/25 15:19:32;;;;;;;4.70;2.60;;;;;;;;;;6337140;28;20369;-82
2023/04/25 15:22:38;;;;;;;5.53;2.80;;;;;;;;;;6337346;28;20558;-82
2023/04/25 15:25:43;;;;;;;2.85;2.65;;;;;;;;;;6336568;28;20577;-83
2023/04/25 15:28:49;;;;;;;3.47;3.17;;;;;;;;;;6335598;28;20289;-82
2023/04/25 15:31:54;;;;;;;3.40;3.00;;;;;;;;;;6335664;28;20293;-82
2023/04/25 15:34:59;;;;;;;6.78;3.70;;;;;;;;;;6336138;28;20306;-82
2023/04/25 15:38:06;;;;;;;7.53;3.72;;;;;;;;;;6336667;28;20289;-82
2023/04/25 15:41:14;;;;;;;5.45;3.58;;;;;;;;;;6336634;28;20305;-81
2023/04/25 15:44:19;;;;;;;3.92;3.70;;;;;;;;;;6335919;28;20451;-81
2023/04/25 15:47:24;;;;;;;6.43;4.15;;;;;;;;;;6336729;28;20290;-83
2023/04/25 15:50:29;;;;;;;4.60;4.20;;;;;;;;;;6336417;28;20298;-81
2023/04/25 15:53:36;;;;;;;5.00;4.53;;;;;;;;;;6335628;28;20397;-81
2023/04/25 15:56:41;;;;;;;8.20;4.97;;;;;;;;;;6336288;28;20286;-80
2023/04/25 15:59:47;;;;;;;7.15;4.82;;;;;;;;;;6335667;28;20306;-82
2023/04/25 16:02:52;;;;;;;11.40;5.18;;;;;;;;;;6335716;28;20476;-81
2023/04/25 16:05:58;;;;;;;5.03;4.72;;;;;;;;;;6343710;28;20290;-83
2023/04/25 16:09:05;;;;;;;6.32;4.82;;;;;;;;;;6371817;28;20288;-83
2023/04/25 16:12:12;;;;;;;5.10;4.70;;;;;;;;;;6347958;28;20461;-81
2023/04/25 16:15:18;;;;;;;5.40;5.00;;;;;;;;;;6360275;28;20301;-82
2023/04/25 16:18:23;;;;;;;6.45;4.65;;;;;;;;;;6360110;28;20285;-82
2023/04/25 16:21:29;;;;;;;5.03;4.63;;;;;;;;;;6359362;28;20470;-80
2023/04/25 16:24:36;;;;;;;6.80;4.90;;;;;;;;;;6360666;28;20557;-81
2023/04/25 16:27:41;;;;;;;6.28;4.68;;;;;;;;;;6361310;28;20281;-81
2023/04/25 16:30:46;;;;;;;8.20;5.40;;;;;;;;;;6360623;28;20293;-81
2023/04/25 16:33:51;;;;;;;7.63;5.18;;;;;;;;;;6342828;28;20293;-81
2023/04/25 16:36:57;;;;;;;8.15;5.90;;;;;;;;;;6360875;28;20455;-81
2023/04/25 16:40:07;;;;;;;7.65;5.47;;;;;;;;;;6342526;28;20288;-81
2023/04/25 16:43:12;;;;;;;6.95;6.00;;;;;;;;;;6360141;28;20293;-80
2023/04/25 16:46:19;;;;;;;11.73;7.53;;;;;;;;;;6361336;28;20431;-82
2023/04/25 16:49:25;;;;;;;7.65;6.75;;;;;;;;;;6342405;28;20293;-82
2023/04/25 16:52:30;;;;;;;6.60;6.10;;;;;;;;;;6361299;28;20573;-81
2023/04/25 16:55:37;;;;;;;8.48;6.80;;;;;;;;;;6360431;28;20297;-82
2023/04/25 16:58:42;;;;;;;8.57;6.22;;;;;;;;;;6342389;28;20293;-82
2023/04/25 17:01:47;;;;;;;7.13;6.18;;;;;;;;;;6361165;28;20289;-82
2023/04/25 17:04:52;;;;;;;13.30;7.38;;;;;;;;;;6359987;28;20309;-83
2023/04/25 17:07:57;;;;;;;12.90;7.15;;;;;;;;;;6342030;28;20292;-81
2023/04/25 17:11:04;;;;;;;9.30;6.95;;;;;;;;;;6348835;28;20365;-81
2023/04/25 17:14:11;;;;;;;15.95;7.72;;;;;;;;;;6335438;28;20297;-78
2023/04/25 17:17:17;;;;;;;10.52;8.23;;;;;;;;;;6335924;28;20385;-82
2023/04/25 17:20:23;;;;;;;11.35;8.60;;;;;;;;;;6344380;28;20317;-80
2023/04/25 17:23:30;;;;;;;9.75;7.93;;;;;;;;;;6334522;28;20294;-78
2023/04/25 17:26:37;;;;;;;12.73;8.68;;;;;;;;;;6334877;28;20337;-76
2023/04/25 17:29:42;;;;;;;14.68;8.65;;;;;;;;;;6334160;28;20305;-78
2023/04/25 17:32:47;;;;;;;14.95;9.07;;;;;;;;;;6316944;28;20444;-81
2023/04/25 17:35:53;;;;;;;12.20;8.80;;;;;;;;;;6335207;28;20289;-79
2023/04/25 17:38:58;;;;;;;10.70;8.35;;;;;;;;;;6335705;28;20477;-77
2023/04/25 17:42:06;;;;;;;11.88;8.82;;;;;;;;;;6336429;28;20241;-81
2023/04/25 17:45:12;;;;;;;13.63;8.93;;;;;;;;;;6334438;28;20598;-81
2023/04/25 17:48:17;;;;;;;14.98;8.70;;;;;;;;;;6317475;28;20469;-81
2023/04/25 17:51:22;;;;;;;16.40;9.60;;;;;;;;;;6317633;28;20261;-79
2023/04/25 17:54:28;;;;;;;15.73;9.00;;;;;;;;;;6335276;28;20309;-82
2023/04/25 17:57:35;;;;;;;14.40;9.18;;;;;;;;;;6335854;28;20289;-81
2023/04/25 18:00:40;;;;;;;12.90;8.80;;;;;;;;;;6317834;28;20309;-83
2023/04/25 18:03:47;;;;;;;15.43;9.13;;;;;;;;;;6342599;28;20304;-81
2023/04/25 18:06:54;;;;;;;14.00;9.30;;;;;;;;;;6362446;28;20289;-82
2023/04/25 18:09:59;;;;;;;15.25;8.60;;;;;;;;;;6362452;28;20281;-83
2023/04/25 18:13:07;;;;;;;18.77;9.27;;;;;;;;;;6362325;28;20297;-80
2023/04/25 18:16:13;;;;;;;11.20;8.40;;;;;;;;;;6342665;28;20293;-80
2023/04/25 18:19:21;;;;;;;14.18;9.13;;;;;;;;;;6359583;28;20302;-84
2023/04/25 18:22:26;;;;;;;14.85;8.88;;;;;;;;;;6343403;28;20402;-83
2023/04/25 18:25:31;;;;;;;14.15;8.68;;;;;;;;;;6360836;28;20317;-79
2023/04/25 18:28:39;;;;;;;11.93;9.27;;;;;;;;;;6364552;28;20281;-80
2023/04/25 18:31:44;;;;;;;14.18;8.88;;;;;;;;;;6352044;28;20310;-84
2023/04/25 18:34:52;;;;;;;15.25;9.00;;;;;;;;;;6360380;28;20336;-82
2023/04/25 18:37:57;;;;;;;13.55;9.55;;;;;;;;;;6360935;28;20288;-82
2023/04/25 18:41:03;;;;;;;15.60;8.90;;;;;;;;;;6343787;28;20289;-83
2023/04/25 18:44:31;;;;;;;15.48;9.20;;;;;;;;;;6363917;28;20297;-82
2023/04/25 18:47:36;;;;;;;20.40;10.00;;;;;;;;;;6366001;28;20297;-82